createdAt,value
2022-11-30T00:00:20.171Z,101391.75
2022-11-30T00:02:46.892Z,101393.31
2022-11-30T00:05:13.440Z,101395.97
2022-11-30T00:07:39.894Z,101403.69
2022-11-30T00:10:07.739Z,101403.91
2022-11-30T00:12:34.157Z,101403.69
2022-11-30T00:15:02.053Z,101399.09
2022-11-30T00:17:28.443Z,101406.94
2022-11-30T00:19:54.858Z,101404.66
2022-11-30T00:22:21.531Z,101409.84
2022-11-30T00:24:48.119Z,101408.41
2022-11-30T00:27:14.669Z,101402.50
2022-11-30T00:29:41.051Z,101405.25
2022-11-30T00:32:08.778Z,101403.41
2022-11-30T00:34:35.506Z,101403.28
2022-11-30T00:37:01.941Z,101399.31
2022-11-30T00:39:33.890Z,101401.19
2022-11-30T00:42:01.889Z,101407.75
2022-11-30T00:44:28.291Z,101400.31
2022-11-30T00:46:54.707Z,101407.59
2022-11-30T00:49:22.531Z,101403.16
2022-11-30T00:51:49.209Z,101402.16
2022-11-30T00:54:15.613Z,101401.50
2022-11-30T00:56:42.042Z,101406.34
2022-11-30T00:59:08.499Z,101396.50
2022-11-30T01:01:34.932Z,101397.91
2022-11-30T01:04:01.836Z,101406.78
2022-11-30T01:06:29.695Z,101405.50
2022-11-30T01:08:56.284Z,101396.34
2022-11-30T01:11:25.315Z,101400.22
2022-11-30T01:13:51.876Z,101399.00
2022-11-30T01:16:20.938Z,101401.00
2022-11-30T01:18:48.611Z,101403.94
2022-11-30T01:21:21.665Z,101405.06
2022-11-30T01:23:50.253Z,101413.88
2022-11-30T01:26:17.622Z,101407.94
2022-11-30T01:28:44.590Z,101408.25
2022-11-30T01:31:13.559Z,101408.44
2022-11-30T01:33:40.850Z,101408.59
2022-11-30T01:36:10.398Z,101405.09
2022-11-30T01:38:38.804Z,101407.69
2022-11-30T01:44:54.398Z,101409.25
2022-11-30T01:47:25.311Z,101413.59
2022-11-30T01:49:55.655Z,101421.34
2022-11-30T01:52:26.127Z,101416.59
2022-11-30T01:54:56.450Z,101422.00
2022-11-30T01:57:29.619Z,101416.53
2022-11-30T02:00:00.872Z,101408.34
2022-11-30T02:02:37.521Z,101412.75
2022-11-30T02:05:04.789Z,101413.75
2022-11-30T02:07:31.300Z,101405.91
2022-11-30T02:09:57.802Z,101416.47
2022-11-30T02:12:31.618Z,101411.19
2022-11-30T02:15:04.422Z,101411.91
2022-11-30T02:17:40.539Z,101419.47
2022-11-30T02:20:42.075Z,101416.75
2022-11-30T02:23:40.971Z,101419.09
2022-11-30T02:26:22.664Z,101414.59
2022-11-30T02:29:03.791Z,101421.69
2022-11-30T02:31:38.286Z,101421.94
2022-11-30T02:34:08.477Z,101415.09
2022-11-30T02:36:36.105Z,101409.03
2022-11-30T02:39:03.854Z,101410.25
2022-11-30T02:41:38.201Z,101408.00
2022-11-30T02:44:10.172Z,101409.25
2022-11-30T02:46:53.856Z,101408.06
2022-11-30T02:49:27.015Z,101400.84
2022-11-30T02:51:55.143Z,101403.00
2022-11-30T02:54:21.587Z,101412.44
2022-11-30T02:56:47.997Z,101406.06
2022-11-30T02:59:15.858Z,101408.25
2022-11-30T03:01:42.371Z,101413.72
2022-11-30T03:04:08.954Z,101411.00
2022-11-30T03:06:35.402Z,101420.19
2022-11-30T03:09:01.992Z,101412.00
2022-11-30T03:11:28.409Z,101420.00
2022-11-30T03:13:55.194Z,101420.75
2022-11-30T03:16:22.978Z,101417.66
2022-11-30T03:18:49.415Z,101424.69
2022-11-30T03:21:15.957Z,101431.78
2022-11-30T03:23:42.383Z,101426.88
2022-11-30T03:26:09.204Z,101426.38
2022-11-30T03:28:36.423Z,101432.59
2022-11-30T03:31:03.142Z,101430.84
2022-11-30T03:33:30.979Z,101423.50
2022-11-30T03:36:01.498Z,101426.03
2022-11-30T03:38:28.324Z,101428.19
2022-11-30T03:41:00.754Z,101433.78
2022-11-30T03:43:27.384Z,101435.50
2022-11-30T03:45:53.927Z,101440.78
2022-11-30T03:48:20.515Z,101438.44
2022-11-30T03:50:48.383Z,101445.81
2022-11-30T03:53:14.849Z,101445.31
2022-11-30T03:55:41.252Z,101437.72
2022-11-30T03:58:07.670Z,101442.72
2022-11-30T04:00:34.125Z,101442.06
2022-11-30T04:03:00.646Z,101444.03
2022-11-30T04:05:27.080Z,101450.72
2022-11-30T04:07:55.065Z,101444.47
2022-11-30T04:10:21.549Z,101445.63
2022-11-30T04:12:47.966Z,101453.91
2022-11-30T04:15:14.492Z,101448.97
2022-11-30T04:17:40.921Z,101458.41
2022-11-30T04:20:08.167Z,101454.81
2022-11-30T04:22:34.589Z,101453.16
2022-11-30T04:25:02.631Z,101460.47
2022-11-30T04:27:29.381Z,101464.97
2022-11-30T04:29:56.038Z,101475.03
2022-11-30T04:32:22.697Z,101470.75
2022-11-30T04:34:49.449Z,101463.31
2022-11-30T04:37:16.059Z,101466.66
2022-11-30T04:39:42.518Z,101469.50
2022-11-30T04:42:10.274Z,101463.72
2022-11-30T04:44:36.695Z,101468.16
2022-11-30T04:47:03.261Z,101460.59
2022-11-30T04:49:29.703Z,101473.47
2022-11-30T04:51:56.121Z,101472.97
2022-11-30T04:54:22.533Z,101471.47
2022-11-30T04:56:48.964Z,101467.31
2022-11-30T04:59:16.703Z,101478.84
2022-11-30T05:01:43.202Z,101475.88
2022-11-30T05:04:09.779Z,101471.72
2022-11-30T05:06:36.297Z,101470.97
2022-11-30T05:09:02.767Z,101477.53
2022-11-30T05:11:29.189Z,101478.06
2022-11-30T05:13:55.582Z,101482.03
2022-11-30T05:16:23.407Z,101471.16
2022-11-30T05:18:49.858Z,101477.81
2022-11-30T05:21:16.300Z,101480.97
2022-11-30T05:23:42.685Z,101486.50
2022-11-30T05:26:09.160Z,101482.00
2022-11-30T05:28:36.257Z,101498.94
2022-11-30T05:31:04.302Z,101494.16
2022-11-30T05:33:32.496Z,101498.03
2022-11-30T05:35:58.998Z,101494.19
2022-11-30T05:38:25.444Z,101490.38
2022-11-30T05:40:51.915Z,101500.56
2022-11-30T05:43:18.324Z,101500.78
2022-11-30T05:45:44.765Z,101502.41
2022-11-30T05:48:11.195Z,101507.38
2022-11-30T05:50:38.937Z,101499.34
2022-11-30T05:53:05.347Z,101503.88
2022-11-30T05:55:31.930Z,101509.97
2022-11-30T05:57:58.348Z,101511.38
2022-11-30T06:00:25.294Z,101504.47
2022-11-30T06:02:55.771Z,101508.88
2022-11-30T06:05:22.229Z,101509.88
2022-11-30T06:07:50.098Z,101510.13
2022-11-30T06:10:17.031Z,101512.84
2022-11-30T06:12:43.481Z,101512.59
2022-11-30T06:15:10.994Z,101511.03
2022-11-30T06:17:37.597Z,101516.84
2022-11-30T06:20:04.520Z,101507.25
2022-11-30T06:22:31.099Z,101509.94
2022-11-30T06:24:58.930Z,101517.81
2022-11-30T06:27:25.378Z,101526.06
2022-11-30T06:29:51.798Z,101533.88
2022-11-30T06:32:18.296Z,101523.69
2022-11-30T06:34:44.865Z,101524.03
2022-11-30T06:37:11.409Z,101528.72
2022-11-30T06:40:04.882Z,101525.56
2022-11-30T06:42:25.623Z,101533.28
2022-11-30T06:44:52.105Z,101535.81
2022-11-30T06:47:18.543Z,101540.47
2022-11-30T06:49:45.108Z,101543.91
2022-11-30T06:52:11.513Z,101546.41
2022-11-30T06:54:38.008Z,101536.22
2022-11-30T06:57:04.401Z,101540.53
2022-11-30T06:59:32.181Z,101549.41
2022-11-30T07:02:01.685Z,101552.53
2022-11-30T07:04:33.282Z,101553.41
2022-11-30T07:06:59.743Z,101547.22
2022-11-30T07:09:26.286Z,101554.38
2022-11-30T07:11:52.727Z,101553.88
2022-11-30T07:14:19.292Z,101564.44
2022-11-30T07:16:47.165Z,101556.22
2022-11-30T07:19:13.597Z,101556.78
2022-11-30T07:21:40.017Z,101564.13
2022-11-30T07:24:06.945Z,101570.91
2022-11-30T07:26:33.480Z,101572.34
2022-11-30T07:28:59.943Z,101576.56
2022-11-30T07:31:28.090Z,101566.94
2022-11-30T07:33:56.970Z,101569.09
2022-11-30T07:36:25.581Z,101574.81
2022-11-30T07:38:52.444Z,101572.38
2022-11-30T07:41:19.111Z,101570.44
2022-11-30T07:43:45.552Z,101572.34
2022-11-30T07:46:14.076Z,101577.72
2022-11-30T07:48:41.371Z,101581.31
2022-11-30T07:51:12.763Z,101581.38
2022-11-30T07:53:39.302Z,101586.09
2022-11-30T07:56:07.655Z,101586.91
2022-11-30T07:58:34.301Z,101585.69
2022-11-30T08:01:02.232Z,101586.81
2022-11-30T08:03:32.377Z,101590.31
2022-11-30T08:06:04.266Z,101588.13
2022-11-30T08:08:33.774Z,101593.44
2022-11-30T08:11:01.415Z,101590.91
2022-11-30T08:13:28.381Z,101597.50
2022-11-30T08:15:54.981Z,101601.66
2022-11-30T08:18:21.451Z,101599.72
2022-11-30T08:20:50.170Z,101601.13
2022-11-30T08:23:16.726Z,101599.06
2022-11-30T08:25:44.462Z,101598.22
2022-11-30T08:28:10.865Z,101596.66
2022-11-30T08:30:37.334Z,101604.13
2022-11-30T08:33:04.012Z,101603.75
2022-11-30T08:35:30.420Z,101611.19
2022-11-30T08:37:56.908Z,101608.63
2022-11-30T08:40:23.358Z,101612.44
2022-11-30T08:42:51.205Z,101609.03
2022-11-30T08:45:17.833Z,101614.41
2022-11-30T08:47:44.313Z,101625.19
2022-11-30T08:50:10.949Z,101626.34
2022-11-30T08:52:37.397Z,101624.97
2022-11-30T08:55:04.412Z,101637.94
2022-11-30T08:57:30.819Z,101637.59
2022-11-30T08:59:58.563Z,101638.66
2022-11-30T09:02:26.528Z,101642.72
2022-11-30T09:04:52.973Z,101643.47
2022-11-30T09:07:19.724Z,101644.53
2022-11-30T09:09:46.249Z,101644.16
2022-11-30T09:12:12.722Z,101640.59
2022-11-30T09:14:39.157Z,101641.59
2022-11-30T09:17:06.910Z,101642.72
2022-11-30T09:19:33.501Z,101646.53
2022-11-30T09:21:59.961Z,101640.63
2022-11-30T09:24:26.435Z,101654.56
2022-11-30T09:26:55.511Z,101652.69
2022-11-30T09:29:22.282Z,101650.00
2022-11-30T09:31:48.733Z,101647.41
2022-11-30T09:34:16.499Z,101651.56
2022-11-30T09:36:42.922Z,101653.81
2022-11-30T09:39:09.584Z,101654.88
2022-11-30T09:41:57.755Z,101649.97
2022-11-30T09:44:32.580Z,101651.16
2022-11-30T09:47:07.363Z,101644.50
2022-11-30T09:49:37.469Z,101648.66
2022-11-30T09:52:09.662Z,101642.13
2022-11-30T09:54:38.909Z,101644.41
2022-11-30T09:57:21.096Z,101646.06
2022-11-30T09:59:54.455Z,101641.41
2022-11-30T10:02:30.243Z,101636.84
2022-11-30T10:04:58.682Z,101636.72
2022-11-30T10:07:44.183Z,101632.31
2022-11-30T10:10:37.473Z,101630.44
2022-11-30T10:13:14.051Z,101641.41
2022-11-30T10:15:52.936Z,101642.22
2022-11-30T10:18:29.973Z,101640.16
2022-11-30T10:21:07.518Z,101635.00
2022-11-30T10:23:48.802Z,101643.06
2022-11-30T10:26:16.421Z,101637.47
2022-11-30T10:28:49.879Z,101640.13
2022-11-30T10:31:17.690Z,101635.56
2022-11-30T10:33:47.165Z,101640.88
2022-11-30T10:36:23.309Z,101630.16
2022-11-30T10:38:52.613Z,101632.81
2022-11-30T10:41:24.852Z,101634.88
2022-11-30T10:43:56.482Z,101635.22
2022-11-30T10:46:28.051Z,101642.34
2022-11-30T10:48:58.345Z,101633.97
2022-11-30T10:51:27.592Z,101631.94
2022-11-30T10:53:54.115Z,101633.91
2022-11-30T10:56:20.498Z,101632.44
2022-11-30T10:58:53.503Z,101633.47
2022-11-30T11:01:32.682Z,101633.56
2022-11-30T11:04:14.029Z,101634.22
2022-11-30T11:06:45.024Z,101636.03
2022-11-30T11:09:35.058Z,101640.75
2022-11-30T11:12:04.198Z,101643.47
2022-11-30T11:14:34.988Z,101645.81
2022-11-30T11:17:06.367Z,101648.66
2022-11-30T11:19:36.149Z,101651.31
2022-11-30T11:22:06.773Z,101648.22
2022-11-30T11:24:34.087Z,101649.16
2022-11-30T11:27:00.851Z,101650.78
2022-11-30T11:29:30.868Z,101653.00
2022-11-30T11:32:07.245Z,101660.81
2022-11-30T11:34:35.403Z,101672.53
2022-11-30T11:37:12.730Z,101661.63
2022-11-30T11:39:39.401Z,101664.47
2022-11-30T11:42:17.746Z,101655.28
2022-11-30T11:44:50.593Z,101656.53
2022-11-30T11:47:24.426Z,101660.47
2022-11-30T11:49:50.833Z,101655.28
2022-11-30T11:52:18.695Z,101656.28
2022-11-30T11:54:49.241Z,101659.38
2022-11-30T11:57:17.443Z,101666.03
2022-11-30T11:59:49.510Z,101655.19
2022-11-30T12:02:27.989Z,101658.53
2022-11-30T12:04:58.991Z,101657.19
2022-11-30T12:07:32.054Z,101655.88
2022-11-30T12:13:15.239Z,101651.69
2022-11-30T12:15:56.999Z,101651.75
2022-11-30T12:18:28.541Z,101644.34
2022-11-30T12:21:00.617Z,101650.94
2022-11-30T12:23:52.419Z,101654.34
2022-11-30T12:26:31.633Z,101655.69
2022-11-30T12:29:16.149Z,101658.88
2022-11-30T12:31:53.591Z,101660.38
2022-11-30T12:34:30.473Z,101666.22
2022-11-30T12:37:04.275Z,101667.56
2022-11-30T12:39:35.143Z,101674.22
2022-11-30T12:42:11.511Z,101679.53
2022-11-30T12:44:47.442Z,101671.91
2022-11-30T12:47:27.356Z,101673.56
2022-11-30T12:50:07.604Z,101681.72
2022-11-30T12:52:44.033Z,101679.53
2022-11-30T12:55:24.759Z,101682.38
2022-11-30T12:58:05.764Z,101689.06
2022-11-30T13:00:45.352Z,101674.41
2022-11-30T13:03:45.563Z,101671.41
2022-11-30T13:06:15.961Z,101684.94
2022-11-30T13:08:51.026Z,101683.81
2022-11-30T13:11:23.379Z,101690.00
2022-11-30T13:13:52.503Z,101687.66
2022-11-30T13:16:20.466Z,101679.75
2022-11-30T13:18:47.756Z,101683.56
2022-11-30T13:21:21.487Z,101691.81
2022-11-30T13:23:55.027Z,101690.00
2022-11-30T13:26:29.195Z,101690.69
2022-11-30T13:29:07.299Z,101692.03
2022-11-30T13:31:39.534Z,101690.72
2022-11-30T13:34:22.950Z,101685.59
2022-11-30T13:36:49.586Z,101686.03
2022-11-30T13:39:22.845Z,101688.03
2022-11-30T13:42:10.019Z,101688.53
2022-11-30T13:44:38.555Z,101691.97
2022-11-30T13:47:15.490Z,101684.13
2022-11-30T13:49:42.352Z,101692.09
2022-11-30T13:52:22.778Z,101686.09
2022-11-30T13:54:52.028Z,101683.28
2022-11-30T13:57:59.092Z,101690.22
2022-11-30T14:01:19.716Z,101690.91
2022-11-30T14:04:36.741Z,101686.84
2022-11-30T14:07:03.296Z,101691.88
2022-11-30T14:09:56.404Z,101687.69
2022-11-30T14:12:46.676Z,101691.78
2022-11-30T14:15:49.699Z,101693.00
2022-11-30T14:18:22.761Z,101696.69
2022-11-30T14:20:54.106Z,101694.19
2022-11-30T14:23:26.078Z,101701.34
2022-11-30T14:25:55.711Z,101705.31
2022-11-30T14:28:25.296Z,101705.22
2022-11-30T14:30:54.792Z,101701.56
2022-11-30T14:33:27.197Z,101708.84
2022-11-30T14:35:56.457Z,101706.09
2022-11-30T14:38:25.478Z,101709.41
2022-11-30T14:40:53.704Z,101706.13
2022-11-30T14:43:20.316Z,101711.72
2022-11-30T14:46:01.598Z,101703.34
2022-11-30T14:48:32.777Z,101715.91
2022-11-30T14:51:01.900Z,101710.63
2022-11-30T14:53:35.887Z,101708.97
2022-11-30T14:56:08.977Z,101720.09
2022-11-30T14:58:43.172Z,101713.78
2022-11-30T15:01:17.113Z,101733.28
2022-11-30T15:03:45.991Z,101723.94
2022-11-30T15:06:15.703Z,101724.81
2022-11-30T15:08:45.891Z,101724.25
2022-11-30T15:11:14.562Z,101723.53
2022-11-30T15:13:43.599Z,101726.22
2022-11-30T15:16:18.642Z,101725.78
2022-11-30T15:18:46.876Z,101732.19
2022-11-30T15:21:16.874Z,101725.56
2022-11-30T15:23:46.720Z,101738.78
2022-11-30T15:26:20.567Z,101734.72
2022-11-30T15:28:54.583Z,101729.91
2022-11-30T15:31:21.372Z,101728.88
2022-11-30T15:33:50.564Z,101735.66
2022-11-30T15:36:32.427Z,101728.59
2022-11-30T15:39:02.341Z,101722.94
2022-11-30T15:41:28.820Z,101725.25
2022-11-30T15:43:56.930Z,101741.44
2022-11-30T15:46:35.072Z,101733.59
2022-11-30T15:49:15.639Z,101729.69
2022-11-30T15:51:44.008Z,101731.06
2022-11-30T15:54:10.634Z,101737.06
2022-11-30T15:56:37.101Z,101736.72
2022-11-30T15:59:06.447Z,101735.72
2022-11-30T16:01:51.252Z,101736.94
2022-11-30T16:04:19.068Z,101745.66
2022-11-30T16:06:47.503Z,101748.84
2022-11-30T16:09:19.510Z,101747.97
2022-11-30T16:11:46.936Z,101749.06
2022-11-30T16:14:15.363Z,101747.72
2022-11-30T16:16:42.109Z,101751.97
2022-11-30T16:19:09.243Z,101753.91
2022-11-30T16:21:37.788Z,101747.16
2022-11-30T16:24:04.942Z,101752.41
2022-11-30T16:29:17.817Z,101755.00
2022-11-30T16:31:44.247Z,101758.28
2022-11-30T16:34:11.349Z,101765.25
2022-11-30T16:36:39.290Z,101769.88
2022-11-30T16:39:06.020Z,101769.28
2022-11-30T16:41:34.614Z,101782.72
2022-11-30T16:44:01.061Z,101770.63
2022-11-30T16:46:28.868Z,101776.47
2022-11-30T16:48:55.928Z,101782.50
2022-11-30T16:51:26.223Z,101782.47
2022-11-30T16:53:54.718Z,101777.91
2022-11-30T16:56:21.389Z,101780.56
2022-11-30T16:58:47.997Z,101780.06
2022-11-30T17:01:18.850Z,101785.66
2022-11-30T17:03:48.443Z,101788.56
2022-11-30T17:06:17.919Z,101784.56
2022-11-30T17:08:44.480Z,101786.22
2022-11-30T17:11:16.988Z,101785.19
2022-11-30T17:13:43.421Z,101787.03
2022-11-30T17:16:10.323Z,101785.25
2022-11-30T17:18:36.758Z,101790.75
2022-11-30T17:21:03.330Z,101790.69
2022-11-30T17:23:29.742Z,101795.03
2022-11-30T17:25:56.511Z,101807.84
2022-11-30T17:28:24.535Z,101804.44
2022-11-30T17:30:51.083Z,101812.50
2022-11-30T17:33:17.531Z,101815.47
2022-11-30T17:35:43.975Z,101805.38
2022-11-30T17:38:10.423Z,101815.53
2022-11-30T17:40:39.205Z,101816.28
2022-11-30T17:43:05.595Z,101819.50
2022-11-30T17:45:33.462Z,101817.47
2022-11-30T17:47:59.942Z,101823.16
2022-11-30T17:50:26.467Z,101818.31
2022-11-30T17:52:52.865Z,101822.66
2022-11-30T17:55:19.258Z,101822.41
2022-11-30T17:57:45.653Z,101820.84
2022-11-30T18:00:12.936Z,101824.63
2022-11-30T18:02:40.741Z,101829.16
2022-11-30T18:05:07.950Z,101826.91
2022-11-30T18:07:34.538Z,101837.28
2022-11-30T18:10:01.016Z,101832.72
2022-11-30T18:12:27.490Z,101826.88
2022-11-30T18:14:53.973Z,101831.66
2022-11-30T18:17:20.400Z,101834.78
2022-11-30T18:19:48.219Z,101836.47
2022-11-30T18:22:14.624Z,101837.41
2022-11-30T18:24:41.052Z,101840.63
2022-11-30T18:27:07.458Z,101839.31
2022-11-30T18:29:33.902Z,101835.94
2022-11-30T18:32:00.530Z,101839.66
2022-11-30T18:34:27.139Z,101840.84
2022-11-30T18:36:54.995Z,101841.00
2022-11-30T18:39:21.447Z,101843.53
2022-11-30T18:41:47.936Z,101842.06
2022-11-30T18:44:14.427Z,101849.28
2022-11-30T18:46:41.004Z,101846.06
2022-11-30T18:49:07.542Z,101848.66
2022-11-30T18:51:35.205Z,101848.28
2022-11-30T18:54:05.103Z,101847.34
2022-11-30T18:56:33.125Z,101850.09
2022-11-30T18:59:01.559Z,101853.81
2022-11-30T19:01:28.655Z,101864.09
2022-11-30T19:03:56.973Z,101859.19
2022-11-30T19:06:24.587Z,101861.94
2022-11-30T19:08:51.297Z,101861.22
2022-11-30T19:11:19.066Z,101864.69
2022-11-30T19:13:45.711Z,101861.06
2022-11-30T19:16:14.583Z,101871.66
2022-11-30T19:18:41.128Z,101867.94
2022-11-30T19:21:08.866Z,101872.81
2022-11-30T19:23:35.863Z,101873.81
2022-11-30T19:26:02.311Z,101863.88
2022-11-30T19:28:31.512Z,101868.19
2022-11-30T19:30:58.573Z,101863.59
2022-11-30T19:33:25.471Z,101869.47
2022-11-30T19:35:51.972Z,101875.84
2022-11-30T19:38:18.500Z,101882.31
2022-11-30T19:40:44.911Z,101881.94
2022-11-30T19:43:11.368Z,101882.03
2022-11-30T19:45:39.364Z,101890.19
2022-11-30T19:48:05.926Z,101885.66
2022-11-30T19:50:32.498Z,101886.72
2022-11-30T19:52:58.939Z,101884.69
2022-11-30T19:55:25.537Z,101887.56
2022-11-30T19:57:51.970Z,101881.78
2022-11-30T20:00:19.625Z,101881.16
2022-11-30T20:02:47.427Z,101886.97
2022-11-30T20:05:13.921Z,101886.69
2022-11-30T20:07:40.392Z,101891.25
2022-11-30T20:10:07.827Z,101890.16
2022-11-30T20:12:34.247Z,101893.06
2022-11-30T20:15:00.683Z,101897.63
2022-11-30T20:17:27.097Z,101895.09
2022-11-30T20:19:54.845Z,101890.13
2022-11-30T20:22:21.238Z,101890.59
2022-11-30T20:24:47.849Z,101896.66
2022-11-30T20:27:14.618Z,101896.53
2022-11-30T20:29:41.030Z,101892.72
2022-11-30T20:32:07.456Z,101898.22
2022-11-30T20:34:38.617Z,101902.88
2022-11-30T20:37:08.783Z,101905.53
2022-11-30T20:39:35.231Z,101906.59
2022-11-30T20:42:01.608Z,101903.09
2022-11-30T20:44:28.034Z,101907.47
2022-11-30T20:46:54.477Z,101906.81
2022-11-30T20:49:20.939Z,101904.91
2022-11-30T20:51:48.012Z,101911.34
2022-11-30T20:54:16.447Z,101904.78
2022-11-30T20:56:43.183Z,101905.84
2022-11-30T20:59:15.281Z,101908.47
2022-11-30T21:01:43.986Z,101910.78
2022-11-30T21:04:11.090Z,101908.69
2022-11-30T21:06:37.501Z,101907.72
2022-11-30T21:09:04.695Z,101907.63
2022-11-30T21:11:32.465Z,101907.69
2022-11-30T21:13:59.144Z,101900.34
2022-11-30T21:16:28.603Z,101902.59
2022-11-30T21:18:56.739Z,101904.19
2022-11-30T21:21:27.169Z,101906.09
2022-11-30T21:23:53.832Z,101903.78
2022-11-30T21:26:21.993Z,101905.47
2022-11-30T21:28:51.493Z,101914.88
2022-11-30T21:31:17.953Z,101912.38
2022-11-30T21:33:50.956Z,101907.72
2022-11-30T21:36:19.407Z,101905.50
2022-11-30T21:38:45.825Z,101906.34
2022-11-30T21:41:14.136Z,101912.34
2022-11-30T21:43:41.425Z,101913.03
2022-11-30T21:46:12.547Z,101914.44
2022-11-30T21:48:41.089Z,101911.94
2022-11-30T21:51:09.770Z,101907.63
2022-11-30T21:53:38.905Z,101906.47
2022-11-30T21:56:07.707Z,101912.50
2022-11-30T21:58:34.509Z,101908.72
2022-11-30T22:01:02.605Z,101915.69
2022-11-30T22:03:30.530Z,101913.19
2022-11-30T22:05:58.401Z,101922.16
2022-11-30T22:08:24.845Z,101915.31
2022-11-30T22:10:51.270Z,101913.31
2022-11-30T22:13:17.671Z,101918.28
2022-11-30T22:15:44.111Z,101918.66
2022-11-30T22:18:10.630Z,101918.28
2022-11-30T22:20:38.395Z,101912.69
2022-11-30T22:23:04.792Z,101918.91
2022-11-30T22:25:31.229Z,101916.47
2022-11-30T22:27:57.594Z,101919.59
2022-11-30T22:30:24.006Z,101922.59
2022-11-30T22:32:50.439Z,101917.47
2022-11-30T22:35:16.833Z,101919.97
2022-11-30T22:37:44.603Z,101914.47
2022-11-30T22:40:12.226Z,101917.66
2022-11-30T22:42:38.627Z,101921.84
2022-11-30T22:45:06.686Z,101919.22
2022-11-30T22:47:33.127Z,101916.84
2022-11-30T22:49:59.563Z,101924.50
2022-11-30T22:52:48.342Z,101923.72
2022-11-30T22:55:13.986Z,101921.75
2022-11-30T22:57:40.522Z,101922.34
2022-11-30T23:00:08.491Z,101920.31
2022-11-30T23:02:35.034Z,101924.25
2022-11-30T23:05:01.510Z,101911.44
2022-11-30T23:07:32.074Z,101911.84
2022-11-30T23:09:58.794Z,101915.16
2022-11-30T23:12:51.274Z,101914.66
2022-11-30T23:15:13.311Z,101912.06
2022-11-30T23:17:39.745Z,101906.13
2022-11-30T23:20:07.418Z,101911.97
2022-11-30T23:22:35.297Z,101907.63
2022-11-30T23:25:01.758Z,101904.13
2022-11-30T23:27:29.500Z,101909.56
2022-11-30T23:29:56.110Z,101905.59
2022-11-30T23:32:22.639Z,101910.47
2022-11-30T23:34:50.757Z,101906.63
2022-11-30T23:37:17.446Z,101905.97
2022-11-30T23:39:43.843Z,101905.38
2022-11-30T23:42:10.244Z,101908.00
2022-11-30T23:44:38.017Z,101911.47
2022-11-30T23:47:04.653Z,101915.25
2022-11-30T23:49:31.223Z,101920.56
2022-11-30T23:51:57.664Z,101924.78
2022-11-30T23:54:24.166Z,101921.72
2022-11-30T23:56:50.570Z,101915.34
2022-11-30T23:59:17.044Z,101917.81
